sensor_id;sensor_type;location;lat;lon;timestamp;temperature;humidity
61145;DHT22;47026;51.208;3.288;2022-12-18T00:01:49;-2.70;99.90
61145;DHT22;47026;51.208;3.288;2022-12-18T00:04:18;-2.80;99.90
61145;DHT22;47026;51.208;3.288;2022-12-18T00:06:44;-2.90;99.90
61145;DHT22;47026;51.208;3.288;2022-12-18T00:09:09;-3.00;99.90
61145;DHT22;47026;51.208;3.288;2022-12-18T00:11:35;-3.10;99.90
61145;DHT22;47026;51.208;3.288;2022-12-18T00:14:01;-3.30;99.90
61145;DHT22;47026;51.208;3.288;2022-12-18T00:16:27;-3.30;99.90
61145;DHT22;47026;51.208;3.288;2022-12-18T00:18:56;-3.20;99.90
61145;DHT22;47026;51.208;3.288;2022-12-18T00:21:22;-3.20;99.90
61145;DHT22;47026;51.208;3.288;2022-12-18T00:23:48;-3.20;99.90
61145;DHT22;47026;51.208;3.288;2022-12-18T00:26:16;-3.40;99.90
61145;DHT22;47026;51.208;3.288;2022-12-18T00:28:44;-3.40;99.90
61145;DHT22;47026;51.208;3.288;2022-12-18T00:31:13;-3.30;99.90
61145;DHT22;47026;51.208;3.288;2022-12-18T00:33:38;-3.30;99.90
61145;DHT22;47026;51.208;3.288;2022-12-18T00:36:05;-3.30;99.90
61145;DHT22;47026;51.208;3.288;2022-12-18T00:38:31;-3.30;99.90
61145;DHT22;47026;51.208;3.288;2022-12-18T00:40:56;-3.40;99.90
61145;DHT22;47026;51.208;3.288;2022-12-18T00:43:22;-3.40;99.90
61145;DHT22;47026;51.208;3.288;2022-12-18T00:45:47;-3.50;99.90
61145;DHT22;47026;51.208;3.288;2022-12-18T00:48:13;-3.50;99.90
61145;DHT22;47026;51.208;3.288;2022-12-18T00:50:39;-3.50;99.90
61145;DHT22;47026;51.208;3.288;2022-12-18T00:53:04;-3.60;99.90
61145;DHT22;47026;51.208;3.288;2022-12-18T00:55:30;-3.60;99.90
61145;DHT22;47026;51.208;3.288;2022-12-18T00:57:56;-3.60;99.90
61145;DHT22;47026;51.208;3.288;2022-12-18T01:00:21;-3.60;99.90
61145;DHT22;47026;51.208;3.288;2022-12-18T01:02:48;-3.40;99.90
61145;DHT22;47026;51.208;3.288;2022-12-18T01:05:14;-3.40;99.90
61145;DHT22;47026;51.208;3.288;2022-12-18T01:07:41;-3.30;99.90
61145;DHT22;47026;51.208;3.288;2022-12-18T01:10:11;-3.30;99.90
61145;DHT22;47026;51.208;3.288;2022-12-18T01:12:37;-3.20;99.90
61145;DHT22;47026;51.208;3.288;2022-12-18T01:15:05;-3.40;99.90
61145;DHT22;47026;51.208;3.288;2022-12-18T01:17:31;-3.40;99.90
61145;DHT22;47026;51.208;3.288;2022-12-18T01:19:56;-3.20;99.90
61145;DHT22;47026;51.208;3.288;2022-12-18T01:22:22;-3.30;99.90
61145;DHT22;47026;51.208;3.288;2022-12-18T01:24:48;-3.40;99.90
61145;DHT22;47026;51.208;3.288;2022-12-18T01:27:14;-3.30;99.90
61145;DHT22;47026;51.208;3.288;2022-12-18T01:29:39;-3.20;99.90
61145;DHT22;47026;51.208;3.288;2022-12-18T01:32:05;-3.30;99.90
61145;DHT22;47026;51.208;3.288;2022-12-18T01:34:31;-3.30;99.90
61145;DHT22;47026;51.208;3.288;2022-12-18T01:37:01;-3.40;99.90
61145;DHT22;47026;51.208;3.288;2022-12-18T01:39:27;-3.50;99.90
61145;DHT22;47026;51.208;3.288;2022-12-18T01:41:53;-3.30;99.90
61145;DHT22;47026;51.208;3.288;2022-12-18T01:50:04;-3.20;99.90
61145;DHT22;47026;51.208;3.288;2022-12-18T01:52:33;-3.20;99.90
61145;DHT22;47026;51.208;3.288;2022-12-18T01:54:59;-3.20;99.90
61145;DHT22;47026;51.208;3.288;2022-12-18T01:57:26;-3.20;99.90
61145;DHT22;47026;51.208;3.288;2022-12-18T01:59:54;-3.20;99.90
61145;DHT22;47026;51.208;3.288;2022-12-18T02:02:22;-3.20;99.90
61145;DHT22;47026;51.208;3.288;2022-12-18T02:04:48;-3.20;99.90
61145;DHT22;47026;51.208;3.288;2022-12-18T02:12:42;-3.30;99.90
61145;DHT22;47026;51.208;3.288;2022-12-18T02:15:38;-3.30;99.90
61145;DHT22;47026;51.208;3.288;2022-12-18T02:18:24;-3.50;99.90
61145;DHT22;47026;51.208;3.288;2022-12-18T02:21:21;-3.50;99.90
61145;DHT22;47026;51.208;3.288;2022-12-18T02:24:13;-3.50;99.90
61145;DHT22;47026;51.208;3.288;2022-12-18T02:26:58;-3.60;99.90
61145;DHT22;47026;51.208;3.288;2022-12-18T02:32:10;-3.50;99.90
61145;DHT22;47026;51.208;3.288;2022-12-18T02:34:39;-3.40;99.90
61145;DHT22;47026;51.208;3.288;2022-12-18T02:37:09;-3.50;99.90
61145;DHT22;47026;51.208;3.288;2022-12-18T02:39:38;-3.50;99.90
61145;DHT22;47026;51.208;3.288;2022-12-18T02:42:04;-3.40;99.90
61145;DHT22;47026;51.208;3.288;2022-12-18T02:44:34;-3.20;99.90
61145;DHT22;47026;51.208;3.288;2022-12-18T02:47:01;-3.20;99.90
61145;DHT22;47026;51.208;3.288;2022-12-18T03:00:20;-3.10;99.90
61145;DHT22;47026;51.208;3.288;2022-12-18T03:02:57;-3.20;99.90
61145;DHT22;47026;51.208;3.288;2022-12-18T03:05:41;-3.30;99.90
61145;DHT22;47026;51.208;3.288;2022-12-18T03:08:13;-3.50;99.90
61145;DHT22;47026;51.208;3.288;2022-12-18T03:10:45;-3.50;99.90
61145;DHT22;47026;51.208;3.288;2022-12-18T03:13:19;-3.60;99.90
61145;DHT22;47026;51.208;3.288;2022-12-18T03:15:49;-3.50;99.90
61145;DHT22;47026;51.208;3.288;2022-12-18T03:18:27;-3.50;99.90
61145;DHT22;47026;51.208;3.288;2022-12-18T03:20:58;-3.60;99.90
61145;DHT22;47026;51.208;3.288;2022-12-18T03:23:29;-3.90;99.90
61145;DHT22;47026;51.208;3.288;2022-12-18T03:26:00;-3.90;99.90
61145;DHT22;47026;51.208;3.288;2022-12-18T03:28:28;-4.00;99.90
61145;DHT22;47026;51.208;3.288;2022-12-18T03:30:58;-4.10;99.90
61145;DHT22;47026;51.208;3.288;2022-12-18T03:33:45;-4.20;99.90
61145;DHT22;47026;51.208;3.288;2022-12-18T03:36:12;-4.10;99.90
61145;DHT22;47026;51.208;3.288;2022-12-18T03:38:38;-3.90;99.90
61145;DHT22;47026;51.208;3.288;2022-12-18T03:44:07;-4.10;99.90
61145;DHT22;47026;51.208;3.288;2022-12-18T03:46:52;-4.10;99.90
61145;DHT22;47026;51.208;3.288;2022-12-18T03:49:38;-4.10;99.90
61145;DHT22;47026;51.208;3.288;2022-12-18T03:54:30;-4.20;99.90
61145;DHT22;47026;51.208;3.288;2022-12-18T03:57:09;-4.10;99.90
61145;DHT22;47026;51.208;3.288;2022-12-18T03:59:35;-4.10;99.90
61145;DHT22;47026;51.208;3.288;2022-12-18T04:02:04;-4.10;99.90
61145;DHT22;47026;51.208;3.288;2022-12-18T04:04:31;-4.20;99.90
61145;DHT22;47026;51.208;3.288;2022-12-18T04:06:58;-4.20;99.90
61145;DHT22;47026;51.208;3.288;2022-12-18T04:09:25;-4.20;99.90
61145;DHT22;47026;51.208;3.288;2022-12-18T04:11:52;-4.30;99.90
61145;DHT22;47026;51.208;3.288;2022-12-18T04:14:17;-4.40;99.90
61145;DHT22;47026;51.208;3.288;2022-12-18T04:16:43;-4.40;99.90
61145;DHT22;47026;51.208;3.288;2022-12-18T04:19:09;-4.30;99.90
61145;DHT22;47026;51.208;3.288;2022-12-18T04:21:35;-4.20;99.90
61145;DHT22;47026;51.208;3.288;2022-12-18T04:24:01;-4.20;99.90
61145;DHT22;47026;51.208;3.288;2022-12-18T04:26:26;-4.10;99.90
61145;DHT22;47026;51.208;3.288;2022-12-18T04:28:52;-4.00;99.90
61145;DHT22;47026;51.208;3.288;2022-12-18T04:31:18;-3.90;99.90
61145;DHT22;47026;51.208;3.288;2022-12-18T04:33:44;-3.80;99.90
61145;DHT22;47026;51.208;3.288;2022-12-18T04:36:09;-3.70;99.90
61145;DHT22;47026;51.208;3.288;2022-12-18T04:38:38;-3.60;99.90
61145;DHT22;47026;51.208;3.288;2022-12-18T04:41:03;-3.70;99.90
61145;DHT22;47026;51.208;3.288;2022-12-18T04:43:29;-3.70;99.90
61145;DHT22;47026;51.208;3.288;2022-12-18T04:46:04;-3.70;99.90
61145;DHT22;47026;51.208;3.288;2022-12-18T04:48:30;-3.60;99.90
61145;DHT22;47026;51.208;3.288;2022-12-18T04:50:56;-3.60;99.90
61145;DHT22;47026;51.208;3.288;2022-12-18T04:53:22;-3.70;99.90
61145;DHT22;47026;51.208;3.288;2022-12-18T04:55:48;-3.70;99.90
61145;DHT22;47026;51.208;3.288;2022-12-18T04:58:14;-3.80;99.90
61145;DHT22;47026;51.208;3.288;2022-12-18T05:00:39;-4.00;99.90
61145;DHT22;47026;51.208;3.288;2022-12-18T05:03:05;-4.20;99.90
61145;DHT22;47026;51.208;3.288;2022-12-18T05:05:31;-4.30;99.90
61145;DHT22;47026;51.208;3.288;2022-12-18T05:07:57;-4.20;99.90
61145;DHT22;47026;51.208;3.288;2022-12-18T05:10:22;-4.50;99.90
61145;DHT22;47026;51.208;3.288;2022-12-18T05:12:48;-4.60;99.90
61145;DHT22;47026;51.208;3.288;2022-12-18T05:15:26;-4.60;99.90
61145;DHT22;47026;51.208;3.288;2022-12-18T05:17:52;-4.60;99.90
61145;DHT22;47026;51.208;3.288;2022-12-18T05:20:18;-4.60;99.90
61145;DHT22;47026;51.208;3.288;2022-12-18T05:22:44;-4.40;99.90
61145;DHT22;47026;51.208;3.288;2022-12-18T05:25:10;-4.30;99.90
61145;DHT22;47026;51.208;3.288;2022-12-18T05:27:36;-4.40;99.90
61145;DHT22;47026;51.208;3.288;2022-12-18T05:30:01;-4.40;99.90
61145;DHT22;47026;51.208;3.288;2022-12-18T05:32:27;-4.40;99.90
61145;DHT22;47026;51.208;3.288;2022-12-18T05:34:53;-4.40;99.90
61145;DHT22;47026;51.208;3.288;2022-12-18T05:37:19;-4.20;99.90
61145;DHT22;47026;51.208;3.288;2022-12-18T05:39:45;-4.10;99.90
61145;DHT22;47026;51.208;3.288;2022-12-18T05:42:10;-4.10;99.90
61145;DHT22;47026;51.208;3.288;2022-12-18T05:44:36;-4.10;99.90
61145;DHT22;47026;51.208;3.288;2022-12-18T05:47:02;-4.10;99.90
61145;DHT22;47026;51.208;3.288;2022-12-18T05:49:28;-4.20;99.90
61145;DHT22;47026;51.208;3.288;2022-12-18T05:51:53;-4.30;99.90
61145;DHT22;47026;51.208;3.288;2022-12-18T05:54:19;-4.30;99.90
61145;DHT22;47026;51.208;3.288;2022-12-18T05:56:45;-4.30;99.90
61145;DHT22;47026;51.208;3.288;2022-12-18T05:59:11;-4.50;99.90
61145;DHT22;47026;51.208;3.288;2022-12-18T06:01:37;-4.60;99.90
61145;DHT22;47026;51.208;3.288;2022-12-18T06:04:02;-4.70;99.90
61145;DHT22;47026;51.208;3.288;2022-12-18T06:06:28;-4.70;99.90
61145;DHT22;47026;51.208;3.288;2022-12-18T06:08:55;-4.50;99.90
61145;DHT22;47026;51.208;3.288;2022-12-18T06:11:23;-4.50;99.90
61145;DHT22;47026;51.208;3.288;2022-12-18T06:13:51;-4.30;99.90
61145;DHT22;47026;51.208;3.288;2022-12-18T06:16:17;-4.30;99.90
61145;DHT22;47026;51.208;3.288;2022-12-18T06:18:42;-4.50;99.90
61145;DHT22;47026;51.208;3.288;2022-12-18T06:21:08;-4.40;99.90
61145;DHT22;47026;51.208;3.288;2022-12-18T06:23:34;-4.50;99.90
61145;DHT22;47026;51.208;3.288;2022-12-18T06:26:09;-4.40;99.90
61145;DHT22;47026;51.208;3.288;2022-12-18T06:28:35;-4.40;99.90
61145;DHT22;47026;51.208;3.288;2022-12-18T06:31:03;-4.40;99.90
61145;DHT22;47026;51.208;3.288;2022-12-18T06:33:29;-4.40;99.90
61145;DHT22;47026;51.208;3.288;2022-12-18T06:38:33;-4.40;99.90
61145;DHT22;47026;51.208;3.288;2022-12-18T06:41:00;-4.30;99.90
61145;DHT22;47026;51.208;3.288;2022-12-18T06:43:26;-4.30;99.90
61145;DHT22;47026;51.208;3.288;2022-12-18T06:45:59;-4.20;99.90
61145;DHT22;47026;51.208;3.288;2022-12-18T06:48:24;-4.30;99.90
61145;DHT22;47026;51.208;3.288;2022-12-18T06:50:50;-4.40;99.90
61145;DHT22;47026;51.208;3.288;2022-12-18T06:53:16;-4.30;99.90
61145;DHT22;47026;51.208;3.288;2022-12-18T06:55:42;-4.30;99.90
61145;DHT22;47026;51.208;3.288;2022-12-18T06:58:08;-4.30;99.90
61145;DHT22;47026;51.208;3.288;2022-12-18T07:00:33;-4.40;99.90
61145;DHT22;47026;51.208;3.288;2022-12-18T07:02:59;-4.50;99.90
61145;DHT22;47026;51.208;3.288;2022-12-18T07:05:25;-4.40;99.90
61145;DHT22;47026;51.208;3.288;2022-12-18T07:07:51;-4.40;99.90
61145;DHT22;47026;51.208;3.288;2022-12-18T07:10:16;-4.40;99.90
61145;DHT22;47026;51.208;3.288;2022-12-18T07:12:42;-4.40;99.90
61145;DHT22;47026;51.208;3.288;2022-12-18T07:15:08;-4.30;99.90
61145;DHT22;47026;51.208;3.288;2022-12-18T07:17:34;-4.30;99.90
61145;DHT22;47026;51.208;3.288;2022-12-18T07:20:00;-4.40;99.90
61145;DHT22;47026;51.208;3.288;2022-12-18T07:22:26;-4.30;99.90
61145;DHT22;47026;51.208;3.288;2022-12-18T07:24:52;-4.30;99.90
61145;DHT22;47026;51.208;3.288;2022-12-18T07:27:17;-4.30;99.90
61145;DHT22;47026;51.208;3.288;2022-12-18T07:29:43;-4.20;99.90
61145;DHT22;47026;51.208;3.288;2022-12-18T07:32:09;-4.20;99.90
61145;DHT22;47026;51.208;3.288;2022-12-18T07:34:35;-4.10;99.90
61145;DHT22;47026;51.208;3.288;2022-12-18T07:37:01;-4.20;99.90
61145;DHT22;47026;51.208;3.288;2022-12-18T07:39:26;-4.10;99.90
61145;DHT22;47026;51.208;3.288;2022-12-18T07:41:52;-4.10;99.90
61145;DHT22;47026;51.208;3.288;2022-12-18T07:44:37;-4.00;99.90
61145;DHT22;47026;51.208;3.288;2022-12-18T07:47:03;-3.90;99.90
61145;DHT22;47026;51.208;3.288;2022-12-18T07:49:28;-4.00;99.90
61145;DHT22;47026;51.208;3.288;2022-12-18T07:51:55;-4.00;99.90
61145;DHT22;47026;51.208;3.288;2022-12-18T07:54:24;-4.10;99.90
61145;DHT22;47026;51.208;3.288;2022-12-18T07:56:51;-4.00;99.90
61145;DHT22;47026;51.208;3.288;2022-12-18T07:59:17;-4.00;99.90
61145;DHT22;47026;51.208;3.288;2022-12-18T08:01:44;-3.90;99.90
61145;DHT22;47026;51.208;3.288;2022-12-18T08:04:10;-3.90;99.90
61145;DHT22;47026;51.208;3.288;2022-12-18T08:06:36;-3.80;99.90
61145;DHT22;47026;51.208;3.288;2022-12-18T08:09:02;-3.80;99.90
61145;DHT22;47026;51.208;3.288;2022-12-18T08:11:28;-3.70;99.90
61145;DHT22;47026;51.208;3.288;2022-12-18T08:13:55;-3.60;99.90
61145;DHT22;47026;51.208;3.288;2022-12-18T08:16:22;-3.50;99.90
61145;DHT22;47026;51.208;3.288;2022-12-18T08:18:48;-3.50;99.90
61145;DHT22;47026;51.208;3.288;2022-12-18T08:21:15;-3.30;99.90
61145;DHT22;47026;51.208;3.288;2022-12-18T08:23:41;-3.00;99.90
61145;DHT22;47026;51.208;3.288;2022-12-18T08:26:07;-2.80;99.90
61145;DHT22;47026;51.208;3.288;2022-12-18T08:28:33;-2.80;99.90
61145;DHT22;47026;51.208;3.288;2022-12-18T08:30:58;-2.90;99.90
61145;DHT22;47026;51.208;3.288;2022-12-18T08:33:24;-3.00;99.90
61145;DHT22;47026;51.208;3.288;2022-12-18T08:35:50;-3.20;99.90
61145;DHT22;47026;51.208;3.288;2022-12-18T08:38:15;-3.20;99.90
61145;DHT22;47026;51.208;3.288;2022-12-18T08:40:41;-3.20;99.90
61145;DHT22;47026;51.208;3.288;2022-12-18T08:43:09;-3.10;99.90
61145;DHT22;47026;51.208;3.288;2022-12-18T08:45:53;-3.00;99.90
61145;DHT22;47026;51.208;3.288;2022-12-18T08:48:19;-2.90;99.90
61145;DHT22;47026;51.208;3.288;2022-12-18T08:50:55;-2.90;99.90
61145;DHT22;47026;51.208;3.288;2022-12-18T08:53:25;-2.90;99.90
61145;DHT22;47026;51.208;3.288;2022-12-18T08:55:51;-2.90;99.90
61145;DHT22;47026;51.208;3.288;2022-12-18T08:58:17;-2.90;99.90
61145;DHT22;47026;51.208;3.288;2022-12-18T09:00:43;-2.80;99.90
61145;DHT22;47026;51.208;3.288;2022-12-18T09:03:16;-2.80;99.90
61145;DHT22;47026;51.208;3.288;2022-12-18T09:05:43;-2.80;99.90
61145;DHT22;47026;51.208;3.288;2022-12-18T09:08:09;-2.70;99.90
61145;DHT22;47026;51.208;3.288;2022-12-18T09:10:40;-2.80;99.90
61145;DHT22;47026;51.208;3.288;2022-12-18T09:13:06;-2.60;99.90
61145;DHT22;47026;51.208;3.288;2022-12-18T09:15:32;-2.60;99.90
61145;DHT22;47026;51.208;3.288;2022-12-18T09:17:58;-2.70;99.90
61145;DHT22;47026;51.208;3.288;2022-12-18T09:20:24;-2.60;99.90
61145;DHT22;47026;51.208;3.288;2022-12-18T09:22:50;-2.60;99.90
61145;DHT22;47026;51.208;3.288;2022-12-18T09:25:16;-2.60;99.90
61145;DHT22;47026;51.208;3.288;2022-12-18T09:27:41;-2.80;99.90
61145;DHT22;47026;51.208;3.288;2022-12-18T09:30:08;-2.70;99.90
61145;DHT22;47026;51.208;3.288;2022-12-18T09:32:34;-2.60;99.90
61145;DHT22;47026;51.208;3.288;2022-12-18T09:34:59;-2.50;99.90
61145;DHT22;47026;51.208;3.288;2022-12-18T09:37:27;-2.50;99.90
61145;DHT22;47026;51.208;3.288;2022-12-18T09:39:52;-2.40;99.90
61145;DHT22;47026;51.208;3.288;2022-12-18T09:42:21;-2.30;99.90
61145;DHT22;47026;51.208;3.288;2022-12-18T09:44:54;-2.20;99.90
61145;DHT22;47026;51.208;3.288;2022-12-18T09:47:29;-2.20;99.90
61145;DHT22;47026;51.208;3.288;2022-12-18T09:50:06;-2.10;99.90
61145;DHT22;47026;51.208;3.288;2022-12-18T09:52:45;-2.00;99.90
61145;DHT22;47026;51.208;3.288;2022-12-18T09:55:26;-2.00;99.90
61145;DHT22;47026;51.208;3.288;2022-12-18T09:58:01;-2.00;99.90
61145;DHT22;47026;51.208;3.288;2022-12-18T10:00:28;-2.00;99.90
61145;DHT22;47026;51.208;3.288;2022-12-18T10:02:58;-2.10;99.90
61145;DHT22;47026;51.208;3.288;2022-12-18T10:08:13;-1.90;99.90
61145;DHT22;47026;51.208;3.288;2022-12-18T10:10:50;-1.90;99.90
61145;DHT22;47026;51.208;3.288;2022-12-18T10:13:45;-1.90;99.90
61145;DHT22;47026;51.208;3.288;2022-12-18T10:16:27;-1.80;99.90
61145;DHT22;47026;51.208;3.288;2022-12-18T10:19:05;-1.80;99.90
61145;DHT22;47026;51.208;3.288;2022-12-18T10:26:43;-1.80;99.90
61145;DHT22;47026;51.208;3.288;2022-12-18T10:29:13;-1.70;99.90
61145;DHT22;47026;51.208;3.288;2022-12-18T10:31:39;-1.70;99.90
61145;DHT22;47026;51.208;3.288;2022-12-18T10:34:12;-1.70;99.90
61145;DHT22;47026;51.208;3.288;2022-12-18T10:36:38;-1.60;99.90
61145;DHT22;47026;51.208;3.288;2022-12-18T10:39:24;-1.60;99.90
61145;DHT22;47026;51.208;3.288;2022-12-18T10:41:51;-1.60;99.90
61145;DHT22;47026;51.208;3.288;2022-12-18T10:44:23;-1.50;99.90
61145;DHT22;47026;51.208;3.288;2022-12-18T10:46:54;-1.60;99.90
61145;DHT22;47026;51.208;3.288;2022-12-18T10:49:26;-1.40;99.90
61145;DHT22;47026;51.208;3.288;2022-12-18T10:52:14;-1.40;99.90
61145;DHT22;47026;51.208;3.288;2022-12-18T10:59:59;-1.20;99.90
61145;DHT22;47026;51.208;3.288;2022-12-18T11:02:37;-1.10;99.90
61145;DHT22;47026;51.208;3.288;2022-12-18T11:07:50;-1.10;99.90
61145;DHT22;47026;51.208;3.288;2022-12-18T11:10:17;-1.10;99.90
61145;DHT22;47026;51.208;3.288;2022-12-18T11:12:44;-1.10;99.90
61145;DHT22;47026;51.208;3.288;2022-12-18T11:15:26;-1.10;99.90
61145;DHT22;47026;51.208;3.288;2022-12-18T11:17:53;-1.00;99.90
61145;DHT22;47026;51.208;3.288;2022-12-18T11:23:11;-1.00;99.90
61145;DHT22;47026;51.208;3.288;2022-12-18T11:25:38;-1.00;99.90
61145;DHT22;47026;51.208;3.288;2022-12-18T11:28:35;-1.00;99.90
61145;DHT22;47026;51.208;3.288;2022-12-18T11:31:24;-0.90;99.90
61145;DHT22;47026;51.208;3.288;2022-12-18T11:34:05;-1.00;99.90
61145;DHT22;47026;51.208;3.288;2022-12-18T11:36:44;-0.90;99.90
61145;DHT22;47026;51.208;3.288;2022-12-18T11:42:09;-0.70;99.90
61145;DHT22;47026;51.208;3.288;2022-12-18T11:44:57;-0.70;99.90
61145;DHT22;47026;51.208;3.288;2022-12-18T11:47:50;-0.60;99.90
61145;DHT22;47026;51.208;3.288;2022-12-18T11:50:50;-0.60;99.90
61145;DHT22;47026;51.208;3.288;2022-12-18T11:53:17;-0.70;99.90
61145;DHT22;47026;51.208;3.288;2022-12-18T11:58:31;-0.50;99.90
61145;DHT22;47026;51.208;3.288;2022-12-18T12:04:19;-0.40;99.90
61145;DHT22;47026;51.208;3.288;2022-12-18T12:18:17;0.00;99.90
61145;DHT22;47026;51.208;3.288;2022-12-18T12:20:51;-0.10;99.90
61145;DHT22;47026;51.208;3.288;2022-12-18T12:26:24;-0.10;99.90
61145;DHT22;47026;51.208;3.288;2022-12-18T12:29:17;-0.10;99.90
61145;DHT22;47026;51.208;3.288;2022-12-18T12:34:32;-0.10;99.90
61145;DHT22;47026;51.208;3.288;2022-12-18T12:37:28;0.10;99.90
61145;DHT22;47026;51.208;3.288;2022-12-18T12:39:59;0.00;99.90
61145;DHT22;47026;51.208;3.288;2022-12-18T12:42:38;0.00;99.90
61145;DHT22;47026;51.208;3.288;2022-12-18T12:45:26;-0.10;99.90
61145;DHT22;47026;51.208;3.288;2022-12-18T12:47:54;0.00;99.90
61145;DHT22;47026;51.208;3.288;2022-12-18T12:50:22;0.00;99.90
61145;DHT22;47026;51.208;3.288;2022-12-18T12:52:52;0.00;99.90
61145;DHT22;47026;51.208;3.288;2022-12-18T12:55:28;0.00;99.90
61145;DHT22;47026;51.208;3.288;2022-12-18T13:09:09;0.10;99.90
61145;DHT22;47026;51.208;3.288;2022-12-18T13:14:34;0.10;99.90
61145;DHT22;47026;51.208;3.288;2022-12-18T13:17:30;0.10;99.90
61145;DHT22;47026;51.208;3.288;2022-12-18T13:20:14;0.10;99.90
61145;DHT22;47026;51.208;3.288;2022-12-18T13:22:48;0.00;99.90
61145;DHT22;47026;51.208;3.288;2022-12-18T13:25:47;0.00;99.90
61145;DHT22;47026;51.208;3.288;2022-12-18T13:28:14;0.10;99.90
61145;DHT22;47026;51.208;3.288;2022-12-18T13:40:55;0.00;99.90
61145;DHT22;47026;51.208;3.288;2022-12-18T13:48:30;0.00;99.90
61145;DHT22;47026;51.208;3.288;2022-12-18T13:56:24;0.10;99.90
61145;DHT22;47026;51.208;3.288;2022-12-18T13:59:16;0.20;99.90
61145;DHT22;47026;51.208;3.288;2022-12-18T14:01:55;0.20;99.90
61145;DHT22;47026;51.208;3.288;2022-12-18T14:04:30;0.20;99.90
61145;DHT22;47026;51.208;3.288;2022-12-18T14:07:01;0.20;99.90
61145;DHT22;47026;51.208;3.288;2022-12-18T14:09:45;0.20;99.90
61145;DHT22;47026;51.208;3.288;2022-12-18T14:12:27;0.10;99.90
61145;DHT22;47026;51.208;3.288;2022-12-18T14:20:21;-0.10;99.90
61145;DHT22;47026;51.208;3.288;2022-12-18T14:22:48;0.00;99.90
61145;DHT22;47026;51.208;3.288;2022-12-18T14:25:19;0.00;99.90
61145;DHT22;47026;51.208;3.288;2022-12-18T14:28:13;0.10;99.90
61145;DHT22;47026;51.208;3.288;2022-12-18T14:30:44;0.20;99.90
61145;DHT22;47026;51.208;3.288;2022-12-18T14:33:16;0.10;99.90
61145;DHT22;47026;51.208;3.288;2022-12-18T14:38:38;0.10;99.90
61145;DHT22;47026;51.208;3.288;2022-12-18T14:41:12;0.10;99.90
61145;DHT22;47026;51.208;3.288;2022-12-18T14:43:43;0.20;99.90
61145;DHT22;47026;51.208;3.288;2022-12-18T14:48:51;0.30;99.90
61145;DHT22;47026;51.208;3.288;2022-12-18T14:51:18;0.20;99.90
61145;DHT22;47026;51.208;3.288;2022-12-18T14:53:46;0.40;99.90
61145;DHT22;47026;51.208;3.288;2022-12-18T14:56:24;0.20;99.90
61145;DHT22;47026;51.208;3.288;2022-12-18T14:58:54;0.20;99.90
61145;DHT22;47026;51.208;3.288;2022-12-18T15:01:29;0.10;99.90
61145;DHT22;47026;51.208;3.288;2022-12-18T15:03:57;0.10;99.90
61145;DHT22;47026;51.208;3.288;2022-12-18T15:06:36;0.10;99.90
61145;DHT22;47026;51.208;3.288;2022-12-18T15:09:22;0.10;99.90
61145;DHT22;47026;51.208;3.288;2022-12-18T15:11:48;0.20;99.90
61145;DHT22;47026;51.208;3.288;2022-12-18T15:17:02;0.20;99.90
61145;DHT22;47026;51.208;3.288;2022-12-18T15:19:38;0.20;99.90
61145;DHT22;47026;51.208;3.288;2022-12-18T15:22:12;0.20;99.90
61145;DHT22;47026;51.208;3.288;2022-12-18T15:24:42;0.20;99.90
61145;DHT22;47026;51.208;3.288;2022-12-18T15:27:19;0.20;99.90
61145;DHT22;47026;51.208;3.288;2022-12-18T15:30:03;0.30;99.90
61145;DHT22;47026;51.208;3.288;2022-12-18T15:32:41;0.20;99.90
61145;DHT22;47026;51.208;3.288;2022-12-18T15:37:37;0.20;99.90
61145;DHT22;47026;51.208;3.288;2022-12-18T15:40:03;0.20;99.90
61145;DHT22;47026;51.208;3.288;2022-12-18T15:42:29;0.20;99.90
61145;DHT22;47026;51.208;3.288;2022-12-18T15:45:14;0.20;99.90
61145;DHT22;47026;51.208;3.288;2022-12-18T15:47:40;0.30;99.90
61145;DHT22;47026;51.208;3.288;2022-12-18T15:50:09;0.30;99.90
61145;DHT22;47026;51.208;3.288;2022-12-18T15:52:44;0.30;99.90
61145;DHT22;47026;51.208;3.288;2022-12-18T15:55:15;0.40;99.90
61145;DHT22;47026;51.208;3.288;2022-12-18T15:58:00;0.30;99.90
61145;DHT22;47026;51.208;3.288;2022-12-18T16:00:25;0.30;99.90
61145;DHT22;47026;51.208;3.288;2022-12-18T16:02:51;0.30;99.90
61145;DHT22;47026;51.208;3.288;2022-12-18T16:05:19;0.30;99.90
61145;DHT22;47026;51.208;3.288;2022-12-18T16:07:46;0.30;99.90
61145;DHT22;47026;51.208;3.288;2022-12-18T16:10:12;0.30;99.90
61145;DHT22;47026;51.208;3.288;2022-12-18T16:12:37;0.30;99.90
61145;DHT22;47026;51.208;3.288;2022-12-18T16:15:05;0.30;99.90
61145;DHT22;47026;51.208;3.288;2022-12-18T16:17:31;0.30;99.90
61145;DHT22;47026;51.208;3.288;2022-12-18T16:19:57;0.30;99.90
61145;DHT22;47026;51.208;3.288;2022-12-18T16:22:28;0.40;99.90
61145;DHT22;47026;51.208;3.288;2022-12-18T16:24:55;0.40;99.90
61145;DHT22;47026;51.208;3.288;2022-12-18T16:27:22;0.50;99.90
61145;DHT22;47026;51.208;3.288;2022-12-18T16:29:48;0.40;99.90
61145;DHT22;47026;51.208;3.288;2022-12-18T16:32:17;0.40;99.90
61145;DHT22;47026;51.208;3.288;2022-12-18T16:34:44;0.30;99.90
61145;DHT22;47026;51.208;3.288;2022-12-18T16:37:11;0.40;99.90
61145;DHT22;47026;51.208;3.288;2022-12-18T16:39:38;0.50;99.90
61145;DHT22;47026;51.208;3.288;2022-12-18T16:42:16;0.50;99.90
61145;DHT22;47026;51.208;3.288;2022-12-18T16:44:45;0.60;99.90
61145;DHT22;47026;51.208;3.288;2022-12-18T16:47:11;0.60;99.90
61145;DHT22;47026;51.208;3.288;2022-12-18T16:49:36;0.60;99.90
61145;DHT22;47026;51.208;3.288;2022-12-18T16:52:04;0.70;99.90
61145;DHT22;47026;51.208;3.288;2022-12-18T16:54:30;0.80;99.90
61145;DHT22;47026;51.208;3.288;2022-12-18T16:56:58;0.80;99.90
61145;DHT22;47026;51.208;3.288;2022-12-18T16:59:25;0.70;99.90
61145;DHT22;47026;51.208;3.288;2022-12-18T17:01:51;0.80;99.90
61145;DHT22;47026;51.208;3.288;2022-12-18T17:04:17;0.70;99.90
61145;DHT22;47026;51.208;3.288;2022-12-18T17:06:43;0.70;99.90
61145;DHT22;47026;51.208;3.288;2022-12-18T17:09:14;0.70;99.90
61145;DHT22;47026;51.208;3.288;2022-12-18T17:11:41;0.80;99.90
61145;DHT22;47026;51.208;3.288;2022-12-18T17:14:15;0.90;99.90
61145;DHT22;47026;51.208;3.288;2022-12-18T17:16:42;0.90;99.90
61145;DHT22;47026;51.208;3.288;2022-12-18T17:19:08;0.90;99.90
61145;DHT22;47026;51.208;3.288;2022-12-18T17:21:34;0.80;99.90
61145;DHT22;47026;51.208;3.288;2022-12-18T17:24:00;0.80;99.90
61145;DHT22;47026;51.208;3.288;2022-12-18T17:26:26;0.70;99.90
61145;DHT22;47026;51.208;3.288;2022-12-18T17:28:52;0.80;99.90
61145;DHT22;47026;51.208;3.288;2022-12-18T17:31:22;0.70;99.90
61145;DHT22;47026;51.208;3.288;2022-12-18T17:33:49;0.80;99.90
61145;DHT22;47026;51.208;3.288;2022-12-18T17:36:15;1.00;99.90
61145;DHT22;47026;51.208;3.288;2022-12-18T17:38:42;0.90;99.90
61145;DHT22;47026;51.208;3.288;2022-12-18T17:41:10;0.90;99.90
61145;DHT22;47026;51.208;3.288;2022-12-18T17:43:36;0.90;99.90
61145;DHT22;47026;51.208;3.288;2022-12-18T17:46:13;0.90;99.90
61145;DHT22;47026;51.208;3.288;2022-12-18T17:48:39;1.00;99.90
61145;DHT22;47026;51.208;3.288;2022-12-18T17:51:09;0.90;99.90
61145;DHT22;47026;51.208;3.288;2022-12-18T17:53:36;1.00;99.90
61145;DHT22;47026;51.208;3.288;2022-12-18T17:56:05;0.90;99.90
61145;DHT22;47026;51.208;3.288;2022-12-18T17:58:33;0.90;99.90
61145;DHT22;47026;51.208;3.288;2022-12-18T18:00:59;1.00;99.90